sensor_id;sensor_type;location;lat;lon;timestamp;P1;durP1;ratioP1;P2;durP2;ratioP2
44512;SDS011;30219;50.588;9.504;2022-09-25T00:00:51;8.77;;;6.75;;
44512;SDS011;30219;50.588;9.504;2022-09-25T00:03:21;12.70;;;7.32;;
44512;SDS011;30219;50.588;9.504;2022-09-25T00:05:49;10.02;;;7.03;;
44512;SDS011;30219;50.588;9.504;2022-09-25T00:08:15;9.60;;;6.30;;
44512;SDS011;30219;50.588;9.504;2022-09-25T00:10:42;10.27;;;6.15;;
44512;SDS011;30219;50.588;9.504;2022-09-25T00:13:10;12.70;;;6.72;;
44512;SDS011;30219;50.588;9.504;2022-09-25T00:15:36;12.00;;;6.68;;
44512;SDS011;30219;50.588;9.504;2022-09-25T00:18:02;9.50;;;6.10;;
44512;SDS011;30219;50.588;9.504;2022-09-25T00:20:28;9.05;;;6.50;;
44512;SDS011;30219;50.588;9.504;2022-09-25T00:22:54;10.48;;;6.65;;
44512;SDS011;30219;50.588;9.504;2022-09-25T00:25:20;10.52;;;7.22;;
44512;SDS011;30219;50.588;9.504;2022-09-25T00:27:46;13.18;;;7.57;;
44512;SDS011;30219;50.588;9.504;2022-09-25T00:30:14;9.02;;;6.68;;
44512;SDS011;30219;50.588;9.504;2022-09-25T00:32:39;11.25;;;6.70;;
44512;SDS011;30219;50.588;9.504;2022-09-25T00:35:05;15.40;;;7.22;;
44512;SDS011;30219;50.588;9.504;2022-09-25T00:37:32;13.57;;;8.75;;
44512;SDS011;30219;50.588;9.504;2022-09-25T00:39:58;12.68;;;7.68;;
44512;SDS011;30219;50.588;9.504;2022-09-25T00:42:24;15.02;;;8.13;;
44512;SDS011;30219;50.588;9.504;2022-09-25T00:49:59;17.75;;;12.63;;
44512;SDS011;30219;50.588;9.504;2022-09-25T00:52:28;14.82;;;10.57;;
44512;SDS011;30219;50.588;9.504;2022-09-25T00:54:57;16.60;;;10.68;;
44512;SDS011;30219;50.588;9.504;2022-09-25T00:57:27;17.50;;;11.47;;
44512;SDS011;30219;50.588;9.504;2022-09-25T00:59:59;18.27;;;11.82;;
44512;SDS011;30219;50.588;9.504;2022-09-25T01:02:38;18.77;;;12.35;;
44512;SDS011;30219;50.588;9.504;2022-09-25T01:05:14;22.25;;;12.52;;
44512;SDS011;30219;50.588;9.504;2022-09-25T01:07:42;17.08;;;11.57;;
44512;SDS011;30219;50.588;9.504;2022-09-25T01:10:10;15.27;;;11.23;;
44512;SDS011;30219;50.588;9.504;2022-09-25T01:12:38;19.08;;;12.20;;
44512;SDS011;30219;50.588;9.504;2022-09-25T01:15:06;15.93;;;11.05;;
44512;SDS011;30219;50.588;9.504;2022-09-25T01:17:50;24.20;;;13.52;;
44512;SDS011;30219;50.588;9.504;2022-09-25T01:23:15;17.67;;;12.23;;
44512;SDS011;30219;50.588;9.504;2022-09-25T01:28:39;16.00;;;9.85;;
44512;SDS011;30219;50.588;9.504;2022-09-25T01:31:28;17.25;;;11.23;;
44512;SDS011;30219;50.588;9.504;2022-09-25T01:34:20;17.33;;;11.18;;
44512;SDS011;30219;50.588;9.504;2022-09-25T01:36:54;19.27;;;12.55;;
44512;SDS011;30219;50.588;9.504;2022-09-25T01:39:29;19.23;;;12.48;;
44512;SDS011;30219;50.588;9.504;2022-09-25T01:47:01;20.92;;;12.75;;
44512;SDS011;30219;50.588;9.504;2022-09-25T01:49:38;17.42;;;12.65;;
44512;SDS011;30219;50.588;9.504;2022-09-25T01:52:13;18.45;;;12.65;;
44512;SDS011;30219;50.588;9.504;2022-09-25T01:54:43;17.98;;;12.38;;
44512;SDS011;30219;50.588;9.504;2022-09-25T01:57:15;14.98;;;11.75;;
44512;SDS011;30219;50.588;9.504;2022-09-25T02:00:33;15.02;;;11.60;;
44512;SDS011;30219;50.588;9.504;2022-09-25T02:02:47;15.82;;;10.95;;
44512;SDS011;30219;50.588;9.504;2022-09-25T02:05:28;15.93;;;12.13;;
44512;SDS011;30219;50.588;9.504;2022-09-25T02:08:02;15.88;;;11.88;;
44512;SDS011;30219;50.588;9.504;2022-09-25T02:10:42;18.85;;;13.40;;
44512;SDS011;30219;50.588;9.504;2022-09-25T02:13:12;19.30;;;11.80;;
44512;SDS011;30219;50.588;9.504;2022-09-25T02:15:49;18.23;;;12.70;;
44512;SDS011;30219;50.588;9.504;2022-09-25T02:18:17;16.25;;;12.13;;
44512;SDS011;30219;50.588;9.504;2022-09-25T02:23:54;15.40;;;10.75;;
44512;SDS011;30219;50.588;9.504;2022-09-25T02:26:31;16.13;;;12.60;;
44512;SDS011;30219;50.588;9.504;2022-09-25T02:28:58;16.55;;;11.70;;
44512;SDS011;30219;50.588;9.504;2022-09-25T02:31:27;18.50;;;11.77;;
44512;SDS011;30219;50.588;9.504;2022-09-25T02:34:02;17.42;;;11.98;;
44512;SDS011;30219;50.588;9.504;2022-09-25T02:36:28;16.20;;;11.38;;
44512;SDS011;30219;50.588;9.504;2022-09-25T02:38:56;15.20;;;10.93;;
44512;SDS011;30219;50.588;9.504;2022-09-25T02:47:20;16.95;;;11.25;;
44512;SDS011;30219;50.588;9.504;2022-09-25T02:58:33;16.42;;;11.43;;
44512;SDS011;30219;50.588;9.504;2022-09-25T03:01:11;13.73;;;10.50;;
44512;SDS011;30219;50.588;9.504;2022-09-25T03:03:39;18.70;;;10.48;;
44512;SDS011;30219;50.588;9.504;2022-09-25T03:06:09;12.52;;;9.88;;
44512;SDS011;30219;50.588;9.504;2022-09-25T03:08:35;14.52;;;10.23;;
44512;SDS011;30219;50.588;9.504;2022-09-25T03:11:15;15.52;;;10.27;;
44512;SDS011;30219;50.588;9.504;2022-09-25T03:13:42;15.25;;;10.07;;
44512;SDS011;30219;50.588;9.504;2022-09-25T03:16:19;14.13;;;9.88;;
44512;SDS011;30219;50.588;9.504;2022-09-25T03:18:51;14.70;;;10.45;;
44512;SDS011;30219;50.588;9.504;2022-09-25T03:21:17;16.48;;;10.70;;
44512;SDS011;30219;50.588;9.504;2022-09-25T03:23:42;16.25;;;11.10;;
44512;SDS011;30219;50.588;9.504;2022-09-25T03:26:08;14.35;;;10.05;;
44512;SDS011;30219;50.588;9.504;2022-09-25T03:28:33;18.00;;;11.60;;
44512;SDS011;30219;50.588;9.504;2022-09-25T03:31:00;17.33;;;11.45;;
44512;SDS011;30219;50.588;9.504;2022-09-25T03:33:29;20.42;;;11.25;;
44512;SDS011;30219;50.588;9.504;2022-09-25T03:35:59;16.20;;;12.02;;
44512;SDS011;30219;50.588;9.504;2022-09-25T03:40:56;18.10;;;11.45;;
44512;SDS011;30219;50.588;9.504;2022-09-25T03:43:22;16.13;;;11.15;;
44512;SDS011;30219;50.588;9.504;2022-09-25T03:45:48;16.27;;;11.70;;
44512;SDS011;30219;50.588;9.504;2022-09-25T03:48:13;19.10;;;11.52;;
44512;SDS011;30219;50.588;9.504;2022-09-25T03:50:39;21.55;;;12.77;;
44512;SDS011;30219;50.588;9.504;2022-09-25T03:53:05;15.63;;;11.43;;
44512;SDS011;30219;50.588;9.504;2022-09-25T03:55:31;15.77;;;11.10;;
44512;SDS011;30219;50.588;9.504;2022-09-25T03:57:57;16.88;;;11.82;;
44512;SDS011;30219;50.588;9.504;2022-09-25T04:00:23;15.35;;;11.13;;
44512;SDS011;30219;50.588;9.504;2022-09-25T04:02:48;14.52;;;11.10;;
44512;SDS011;30219;50.588;9.504;2022-09-25T04:05:14;16.23;;;11.02;;
44512;SDS011;30219;50.588;9.504;2022-09-25T04:07:40;14.50;;;10.80;;
44512;SDS011;30219;50.588;9.504;2022-09-25T04:10:06;13.48;;;10.20;;
44512;SDS011;30219;50.588;9.504;2022-09-25T04:12:32;15.93;;;10.88;;
44512;SDS011;30219;50.588;9.504;2022-09-25T04:14:57;15.13;;;10.27;;
44512;SDS011;30219;50.588;9.504;2022-09-25T04:17:23;15.95;;;11.38;;
44512;SDS011;30219;50.588;9.504;2022-09-25T04:19:49;17.42;;;11.75;;
44512;SDS011;30219;50.588;9.504;2022-09-25T04:22:16;17.77;;;11.93;;
44512;SDS011;30219;50.588;9.504;2022-09-25T04:24:41;17.65;;;12.10;;
44512;SDS011;30219;50.588;9.504;2022-09-25T04:27:13;17.50;;;12.30;;
44512;SDS011;30219;50.588;9.504;2022-09-25T04:29:41;19.52;;;12.02;;
44512;SDS011;30219;50.588;9.504;2022-09-25T04:32:06;17.38;;;12.00;;
44512;SDS011;30219;50.588;9.504;2022-09-25T04:34:51;16.13;;;11.68;;
44512;SDS011;30219;50.588;9.504;2022-09-25T04:37:17;17.45;;;12.82;;
44512;SDS011;30219;50.588;9.504;2022-09-25T04:39:42;16.60;;;12.43;;
44512;SDS011;30219;50.588;9.504;2022-09-25T04:42:08;19.05;;;13.10;;
44512;SDS011;30219;50.588;9.504;2022-09-25T04:44:33;16.52;;;11.77;;
44512;SDS011;30219;50.588;9.504;2022-09-25T04:46:59;17.52;;;11.63;;
44512;SDS011;30219;50.588;9.504;2022-09-25T04:49:24;15.32;;;10.88;;
44512;SDS011;30219;50.588;9.504;2022-09-25T04:51:50;17.80;;;11.65;;
44512;SDS011;30219;50.588;9.504;2022-09-25T04:54:15;15.82;;;11.07;;
44512;SDS011;30219;50.588;9.504;2022-09-25T04:56:42;20.33;;;11.98;;
44512;SDS011;30219;50.588;9.504;2022-09-25T04:59:08;16.13;;;10.88;;
44512;SDS011;30219;50.588;9.504;2022-09-25T05:01:35;16.70;;;10.65;;
44512;SDS011;30219;50.588;9.504;2022-09-25T05:04:02;15.25;;;10.50;;
44512;SDS011;30219;50.588;9.504;2022-09-25T05:06:29;15.63;;;10.80;;
44512;SDS011;30219;50.588;9.504;2022-09-25T05:08:54;15.70;;;10.35;;
44512;SDS011;30219;50.588;9.504;2022-09-25T05:11:21;14.35;;;10.60;;
44512;SDS011;30219;50.588;9.504;2022-09-25T05:13:50;17.75;;;11.10;;
44512;SDS011;30219;50.588;9.504;2022-09-25T05:16:16;15.57;;;10.65;;
44512;SDS011;30219;50.588;9.504;2022-09-25T05:18:42;14.40;;;10.18;;
44512;SDS011;30219;50.588;9.504;2022-09-25T05:21:08;15.93;;;10.25;;
44512;SDS011;30219;50.588;9.504;2022-09-25T05:23:34;14.95;;;10.55;;
44512;SDS011;30219;50.588;9.504;2022-09-25T05:25:59;15.80;;;10.30;;
44512;SDS011;30219;50.588;9.504;2022-09-25T05:28:30;13.35;;;9.43;;
44512;SDS011;30219;50.588;9.504;2022-09-25T05:31:01;15.27;;;10.60;;
44512;SDS011;30219;50.588;9.504;2022-09-25T05:35:54;13.77;;;9.75;;
44512;SDS011;30219;50.588;9.504;2022-09-25T05:38:19;13.40;;;9.55;;
44512;SDS011;30219;50.588;9.504;2022-09-25T05:40:45;13.38;;;9.93;;
44512;SDS011;30219;50.588;9.504;2022-09-25T05:43:10;13.55;;;9.63;;
44512;SDS011;30219;50.588;9.504;2022-09-25T05:45:36;14.13;;;10.27;;
44512;SDS011;30219;50.588;9.504;2022-09-25T05:48:05;13.48;;;10.13;;
44512;SDS011;30219;50.588;9.504;2022-09-25T05:50:32;15.18;;;10.98;;
44512;SDS011;30219;50.588;9.504;2022-09-25T05:52:58;13.77;;;10.10;;
44512;SDS011;30219;50.588;9.504;2022-09-25T05:55:25;14.40;;;10.85;;
44512;SDS011;30219;50.588;9.504;2022-09-25T05:57:51;16.95;;;11.52;;
44512;SDS011;30219;50.588;9.504;2022-09-25T06:00:16;16.67;;;11.23;;
44512;SDS011;30219;50.588;9.504;2022-09-25T06:02:42;16.42;;;11.68;;
44512;SDS011;30219;50.588;9.504;2022-09-25T06:05:08;16.38;;;11.40;;
44512;SDS011;30219;50.588;9.504;2022-09-25T06:07:34;17.60;;;12.50;;
44512;SDS011;30219;50.588;9.504;2022-09-25T06:10:00;16.75;;;11.93;;
44512;SDS011;30219;50.588;9.504;2022-09-25T06:12:29;14.80;;;11.15;;
44512;SDS011;30219;50.588;9.504;2022-09-25T06:14:55;17.65;;;12.10;;
44512;SDS011;30219;50.588;9.504;2022-09-25T06:17:21;16.02;;;11.43;;
44512;SDS011;30219;50.588;9.504;2022-09-25T06:19:47;16.77;;;11.23;;
44512;SDS011;30219;50.588;9.504;2022-09-25T06:22:13;18.10;;;11.77;;
44512;SDS011;30219;50.588;9.504;2022-09-25T06:24:38;21.52;;;12.73;;
44512;SDS011;30219;50.588;9.504;2022-09-25T06:27:04;19.23;;;13.00;;
44512;SDS011;30219;50.588;9.504;2022-09-25T06:29:31;17.85;;;12.57;;
44512;SDS011;30219;50.588;9.504;2022-09-25T06:31:56;18.98;;;12.90;;
44512;SDS011;30219;50.588;9.504;2022-09-25T06:34:22;16.50;;;12.20;;
44512;SDS011;30219;50.588;9.504;2022-09-25T06:36:47;18.90;;;12.82;;
44512;SDS011;30219;50.588;9.504;2022-09-25T06:39:16;18.40;;;13.00;;
44512;SDS011;30219;50.588;9.504;2022-09-25T06:41:41;18.52;;;13.10;;
44512;SDS011;30219;50.588;9.504;2022-09-25T06:44:07;17.35;;;12.63;;
44512;SDS011;30219;50.588;9.504;2022-09-25T06:46:33;20.27;;;13.45;;
44512;SDS011;30219;50.588;9.504;2022-09-25T06:49:00;18.40;;;13.02;;
44512;SDS011;30219;50.588;9.504;2022-09-25T06:51:25;18.77;;;13.30;;
44512;SDS011;30219;50.588;9.504;2022-09-25T06:53:55;18.67;;;13.10;;
44512;SDS011;30219;50.588;9.504;2022-09-25T06:56:21;19.90;;;12.88;;
44512;SDS011;30219;50.588;9.504;2022-09-25T06:58:47;20.75;;;14.48;;
44512;SDS011;30219;50.588;9.504;2022-09-25T07:01:12;21.73;;;15.55;;
44512;SDS011;30219;50.588;9.504;2022-09-25T07:03:38;22.17;;;14.35;;
44512;SDS011;30219;50.588;9.504;2022-09-25T07:06:18;19.80;;;13.73;;
44512;SDS011;30219;50.588;9.504;2022-09-25T07:08:46;23.17;;;15.15;;
44512;SDS011;30219;50.588;9.504;2022-09-25T07:11:13;25.58;;;14.52;;
44512;SDS011;30219;50.588;9.504;2022-09-25T07:13:40;20.25;;;14.40;;
44512;SDS011;30219;50.588;9.504;2022-09-25T07:16:16;21.58;;;14.35;;
44512;SDS011;30219;50.588;9.504;2022-09-25T07:18:43;22.13;;;14.45;;
44512;SDS011;30219;50.588;9.504;2022-09-25T07:21:10;19.35;;;13.75;;
44512;SDS011;30219;50.588;9.504;2022-09-25T07:23:41;22.70;;;15.60;;
44512;SDS011;30219;50.588;9.504;2022-09-25T07:26:14;32.42;;;16.17;;
44512;SDS011;30219;50.588;9.504;2022-09-25T07:28:54;23.85;;;14.55;;
44512;SDS011;30219;50.588;9.504;2022-09-25T07:31:29;22.38;;;14.38;;
44512;SDS011;30219;50.588;9.504;2022-09-25T07:33:57;20.27;;;13.30;;
44512;SDS011;30219;50.588;9.504;2022-09-25T07:36:26;21.05;;;14.82;;
44512;SDS011;30219;50.588;9.504;2022-09-25T07:38:53;22.00;;;14.38;;
44512;SDS011;30219;50.588;9.504;2022-09-25T07:41:19;22.08;;;15.45;;
44512;SDS011;30219;50.588;9.504;2022-09-25T07:43:46;23.05;;;15.23;;
44512;SDS011;30219;50.588;9.504;2022-09-25T07:46:16;23.30;;;14.85;;
44512;SDS011;30219;50.588;9.504;2022-09-25T07:48:42;20.05;;;14.40;;
44512;SDS011;30219;50.588;9.504;2022-09-25T07:51:09;19.88;;;14.07;;
44512;SDS011;30219;50.588;9.504;2022-09-25T07:53:36;25.60;;;14.60;;
44512;SDS011;30219;50.588;9.504;2022-09-25T07:56:02;19.75;;;13.98;;
44512;SDS011;30219;50.588;9.504;2022-09-25T07:58:28;21.38;;;13.93;;
44512;SDS011;30219;50.588;9.504;2022-09-25T08:00:58;20.73;;;14.27;;
44512;SDS011;30219;50.588;9.504;2022-09-25T08:03:24;23.20;;;15.57;;
44512;SDS011;30219;50.588;9.504;2022-09-25T08:06:00;23.77;;;15.07;;
44512;SDS011;30219;50.588;9.504;2022-09-25T08:08:28;20.58;;;14.27;;
44512;SDS011;30219;50.588;9.504;2022-09-25T08:11:00;18.75;;;13.55;;
44512;SDS011;30219;50.588;9.504;2022-09-25T08:13:28;22.38;;;15.60;;
44512;SDS011;30219;50.588;9.504;2022-09-25T08:15:56;21.73;;;14.60;;
44512;SDS011;30219;50.588;9.504;2022-09-25T08:18:22;18.60;;;13.48;;
44512;SDS011;30219;50.588;9.504;2022-09-25T08:20:47;19.98;;;13.27;;
44512;SDS011;30219;50.588;9.504;2022-09-25T08:23:13;19.02;;;13.48;;
44512;SDS011;30219;50.588;9.504;2022-09-25T08:25:38;20.05;;;12.88;;
44512;SDS011;30219;50.588;9.504;2022-09-25T08:28:04;19.33;;;14.00;;
44512;SDS011;30219;50.588;9.504;2022-09-25T08:30:30;19.05;;;13.13;;
44512;SDS011;30219;50.588;9.504;2022-09-25T08:32:56;18.65;;;13.75;;
44512;SDS011;30219;50.588;9.504;2022-09-25T08:35:22;17.30;;;12.35;;
44512;SDS011;30219;50.588;9.504;2022-09-25T08:37:47;17.95;;;11.75;;
44512;SDS011;30219;50.588;9.504;2022-09-25T08:40:21;18.50;;;12.38;;
44512;SDS011;30219;50.588;9.504;2022-09-25T08:42:51;16.52;;;10.70;;
44512;SDS011;30219;50.588;9.504;2022-09-25T08:45:28;21.88;;;11.73;;
44512;SDS011;30219;50.588;9.504;2022-09-25T08:48:29;17.30;;;11.32;;
44512;SDS011;30219;50.588;9.504;2022-09-25T08:51:17;16.88;;;11.88;;
44512;SDS011;30219;50.588;9.504;2022-09-25T08:53:43;16.67;;;11.20;;
44512;SDS011;30219;50.588;9.504;2022-09-25T08:56:10;16.35;;;10.93;;
44512;SDS011;30219;50.588;9.504;2022-09-25T08:59:28;15.25;;;11.15;;
44512;SDS011;30219;50.588;9.504;2022-09-25T09:01:45;16.40;;;11.32;;
44512;SDS011;30219;50.588;9.504;2022-09-25T09:04:18;14.93;;;10.90;;
44512;SDS011;30219;50.588;9.504;2022-09-25T09:06:57;20.67;;;13.10;;
44512;SDS011;30219;50.588;9.504;2022-09-25T09:09:36;16.60;;;12.15;;
44512;SDS011;30219;50.588;9.504;2022-09-25T09:14:37;15.75;;;10.90;;
44512;SDS011;30219;50.588;9.504;2022-09-25T09:17:26;15.30;;;11.00;;
44512;SDS011;30219;50.588;9.504;2022-09-25T09:19:58;16.60;;;11.63;;
44512;SDS011;30219;50.588;9.504;2022-09-25T09:22:32;15.98;;;11.15;;
44512;SDS011;30219;50.588;9.504;2022-09-25T09:28:16;18.90;;;10.90;;
44512;SDS011;30219;50.588;9.504;2022-09-25T09:39:21;15.20;;;11.70;;
44512;SDS011;30219;50.588;9.504;2022-09-25T09:41:57;15.70;;;10.93;;
44512;SDS011;30219;50.588;9.504;2022-09-25T09:47:41;14.52;;;10.55;;
44512;SDS011;30219;50.588;9.504;2022-09-25T09:50:48;13.32;;;9.63;;
44512;SDS011;30219;50.588;9.504;2022-09-25T09:53:12;13.07;;;8.98;;
44512;SDS011;30219;50.588;9.504;2022-09-25T09:55:46;14.10;;;9.73;;
44512;SDS011;30219;50.588;9.504;2022-09-25T09:58:18;13.50;;;9.70;;
44512;SDS011;30219;50.588;9.504;2022-09-25T10:00:49;15.15;;;9.65;;
44512;SDS011;30219;50.588;9.504;2022-09-25T10:03:26;14.27;;;9.23;;
44512;SDS011;30219;50.588;9.504;2022-09-25T10:05:55;13.43;;;8.10;;
44512;SDS011;30219;50.588;9.504;2022-09-25T10:08:23;19.00;;;10.77;;
44512;SDS011;30219;50.588;9.504;2022-09-25T10:10:49;21.17;;;11.02;;
44512;SDS011;30219;50.588;9.504;2022-09-25T10:15:47;13.45;;;8.63;;
44512;SDS011;30219;50.588;9.504;2022-09-25T10:18:19;11.05;;;7.20;;
44512;SDS011;30219;50.588;9.504;2022-09-25T10:20:49;10.50;;;6.97;;
44512;SDS011;30219;50.588;9.504;2022-09-25T10:23:38;15.23;;;9.43;;
44512;SDS011;30219;50.588;9.504;2022-09-25T10:28:53;18.40;;;9.00;;
44512;SDS011;30219;50.588;9.504;2022-09-25T10:31:24;22.10;;;11.40;;
44512;SDS011;30219;50.588;9.504;2022-09-25T10:34:01;14.73;;;9.15;;
44512;SDS011;30219;50.588;9.504;2022-09-25T10:36:29;12.00;;;7.32;;
44512;SDS011;30219;50.588;9.504;2022-09-25T10:39:02;11.43;;;7.78;;
44512;SDS011;30219;50.588;9.504;2022-09-25T10:41:30;12.40;;;7.60;;
44512;SDS011;30219;50.588;9.504;2022-09-25T10:44:08;11.43;;;7.18;;
44512;SDS011;30219;50.588;9.504;2022-09-25T10:46:47;11.77;;;7.60;;
44512;SDS011;30219;50.588;9.504;2022-09-25T10:49:31;11.85;;;7.57;;
44512;SDS011;30219;50.588;9.504;2022-09-25T10:52:28;12.43;;;8.23;;
44512;SDS011;30219;50.588;9.504;2022-09-25T10:55:14;10.23;;;7.55;;
44512;SDS011;30219;50.588;9.504;2022-09-25T10:57:53;13.82;;;7.80;;
44512;SDS011;30219;50.588;9.504;2022-09-25T11:00:34;11.25;;;7.30;;
44512;SDS011;30219;50.588;9.504;2022-09-25T11:03:20;10.20;;;7.50;;
44512;SDS011;30219;50.588;9.504;2022-09-25T11:05:53;11.05;;;7.22;;
44512;SDS011;30219;50.588;9.504;2022-09-25T11:08:22;11.65;;;7.47;;
44512;SDS011;30219;50.588;9.504;2022-09-25T11:10:50;11.80;;;7.45;;
44512;SDS011;30219;50.588;9.504;2022-09-25T11:13:24;9.85;;;6.90;;
44512;SDS011;30219;50.588;9.504;2022-09-25T11:15:56;9.68;;;6.97;;
44512;SDS011;30219;50.588;9.504;2022-09-25T11:18:40;10.82;;;7.38;;
44512;SDS011;30219;50.588;9.504;2022-09-25T11:26:49;9.80;;;6.80;;
44512;SDS011;30219;50.588;9.504;2022-09-25T11:29:30;10.15;;;6.93;;
44512;SDS011;30219;50.588;9.504;2022-09-25T11:33:10;9.52;;;6.38;;
44512;SDS011;30219;50.588;9.504;2022-09-25T11:43:34;11.30;;;6.28;;
44512;SDS011;30219;50.588;9.504;2022-09-25T11:46:18;13.18;;;7.88;;
44512;SDS011;30219;50.588;9.504;2022-09-25T11:49:01;12.52;;;7.55;;
44512;SDS011;30219;50.588;9.504;2022-09-25T11:57:06;13.15;;;7.93;;
44512;SDS011;30219;50.588;9.504;2022-09-25T12:08:53;12.23;;;6.65;;
44512;SDS011;30219;50.588;9.504;2022-09-25T12:11:30;14.50;;;7.50;;
44512;SDS011;30219;50.588;9.504;2022-09-25T12:14:22;10.65;;;7.05;;
44512;SDS011;30219;50.588;9.504;2022-09-25T12:20:18;13.77;;;7.30;;
44512;SDS011;30219;50.588;9.504;2022-09-25T12:25:24;11.38;;;6.18;;
44512;SDS011;30219;50.588;9.504;2022-09-25T12:31:03;10.60;;;5.93;;
44512;SDS011;30219;50.588;9.504;2022-09-25T12:36:20;9.88;;;5.68;;
44512;SDS011;30219;50.588;9.504;2022-09-25T12:38:56;10.82;;;6.30;;
44512;SDS011;30219;50.588;9.504;2022-09-25T12:41:47;12.32;;;5.55;;
44512;SDS011;30219;50.588;9.504;2022-09-25T12:45:19;7.97;;;4.78;;
44512;SDS011;30219;50.588;9.504;2022-09-25T12:47:21;8.50;;;5.15;;
44512;SDS011;30219;50.588;9.504;2022-09-25T12:52:32;13.73;;;4.95;;
44512;SDS011;30219;50.588;9.504;2022-09-25T12:55:22;8.60;;;4.65;;
44512;SDS011;30219;50.588;9.504;2022-09-25T12:57:53;10.10;;;4.60;;
44512;SDS011;30219;50.588;9.504;2022-09-25T13:01:08;8.77;;;3.85;;
44512;SDS011;30219;50.588;9.504;2022-09-25T13:09:11;9.05;;;3.58;;
44512;SDS011;30219;50.588;9.504;2022-09-25T13:11:51;8.23;;;3.58;;
44512;SDS011;30219;50.588;9.504;2022-09-25T13:17:35;9.98;;;3.60;;
44512;SDS011;30219;50.588;9.504;2022-09-25T13:23:02;11.50;;;3.47;;
44512;SDS011;30219;50.588;9.504;2022-09-25T13:25:46;6.38;;;2.70;;
44512;SDS011;30219;50.588;9.504;2022-09-25T13:28:33;7.57;;;3.25;;
44512;SDS011;30219;50.588;9.504;2022-09-25T13:31:09;7.45;;;2.58;;
44512;SDS011;30219;50.588;9.504;2022-09-25T13:36:30;8.43;;;3.03;;
44512;SDS011;30219;50.588;9.504;2022-09-25T13:39:15;7.55;;;2.38;;
44512;SDS011;30219;50.588;9.504;2022-09-25T13:42:06;9.90;;;3.15;;
44512;SDS011;30219;50.588;9.504;2022-09-25T13:50:15;7.13;;;2.30;;
44512;SDS011;30219;50.588;9.504;2022-09-25T13:55:43;6.78;;;1.70;;
44512;SDS011;30219;50.588;9.504;2022-09-25T13:58:57;8.05;;;2.03;;
44512;SDS011;30219;50.588;9.504;2022-09-25T14:01:36;8.82;;;2.22;;
44512;SDS011;30219;50.588;9.504;2022-09-25T14:04:08;6.10;;;2.00;;
44512;SDS011;30219;50.588;9.504;2022-09-25T14:06:37;7.88;;;2.50;;
44512;SDS011;30219;50.588;9.504;2022-09-25T14:09:06;5.88;;;2.17;;
44512;SDS011;30219;50.588;9.504;2022-09-25T14:11:35;6.40;;;2.10;;
44512;SDS011;30219;50.588;9.504;2022-09-25T14:14:04;8.13;;;2.80;;
44512;SDS011;30219;50.588;9.504;2022-09-25T14:16:51;11.77;;;2.90;;
44512;SDS011;30219;50.588;9.504;2022-09-25T14:19:21;9.57;;;3.33;;
44512;SDS011;30219;50.588;9.504;2022-09-25T14:21:56;7.47;;;3.13;;
44512;SDS011;30219;50.588;9.504;2022-09-25T14:24:27;11.43;;;3.22;;
44512;SDS011;30219;50.588;9.504;2022-09-25T14:26:54;9.43;;;3.00;;
44512;SDS011;30219;50.588;9.504;2022-09-25T14:29:29;12.43;;;3.55;;
44512;SDS011;30219;50.588;9.504;2022-09-25T14:40:34;7.70;;;2.50;;
44512;SDS011;30219;50.588;9.504;2022-09-25T14:43:10;5.95;;;2.55;;
44512;SDS011;30219;50.588;9.504;2022-09-25T14:48:55;6.95;;;2.30;;
44512;SDS011;30219;50.588;9.504;2022-09-25T14:51:25;12.00;;;3.00;;
44512;SDS011;30219;50.588;9.504;2022-09-25T14:54:03;12.10;;;2.63;;
44512;SDS011;30219;50.588;9.504;2022-09-25T14:56:31;11.18;;;2.22;;
44512;SDS011;30219;50.588;9.504;2022-09-25T14:59:00;9.73;;;2.10;;
44512;SDS011;30219;50.588;9.504;2022-09-25T15:01:31;10.52;;;2.60;;
44512;SDS011;30219;50.588;9.504;2022-09-25T15:04:01;5.30;;;1.80;;
44512;SDS011;30219;50.588;9.504;2022-09-25T15:06:30;10.23;;;1.80;;
44512;SDS011;30219;50.588;9.504;2022-09-25T15:09:00;10.00;;;2.80;;
44512;SDS011;30219;50.588;9.504;2022-09-25T15:11:36;8.52;;;1.90;;
44512;SDS011;30219;50.588;9.504;2022-09-25T15:14:09;6.28;;;1.67;;
44512;SDS011;30219;50.588;9.504;2022-09-25T15:16:39;10.07;;;2.03;;
44512;SDS011;30219;50.588;9.504;2022-09-25T15:19:28;8.35;;;1.52;;
44512;SDS011;30219;50.588;9.504;2022-09-25T15:21:57;7.70;;;2.00;;
44512;SDS011;30219;50.588;9.504;2022-09-25T15:24:24;6.82;;;1.98;;
44512;SDS011;30219;50.588;9.504;2022-09-25T15:26:55;6.10;;;1.80;;
44512;SDS011;30219;50.588;9.504;2022-09-25T15:29:27;8.63;;;2.40;;
44512;SDS011;30219;50.588;9.504;2022-09-25T15:31:55;5.03;;;1.70;;
44512;SDS011;30219;50.588;9.504;2022-09-25T15:34:31;7.97;;;1.73;;
44512;SDS011;30219;50.588;9.504;2022-09-25T15:37:16;6.50;;;1.40;;
44512;SDS011;30219;50.588;9.504;2022-09-25T15:39:55;8.00;;;1.80;;
44512;SDS011;30219;50.588;9.504;2022-09-25T15:42:24;29.05;;;10.00;;
44512;SDS011;30219;50.588;9.504;2022-09-25T15:44:50;20.77;;;6.60;;
44512;SDS011;30219;50.588;9.504;2022-09-25T15:49:59;6.80;;;2.15;;
44512;SDS011;30219;50.588;9.504;2022-09-25T15:52:28;5.30;;;1.60;;
44512;SDS011;30219;50.588;9.504;2022-09-25T15:55:01;7.43;;;2.00;;
44512;SDS011;30219;50.588;9.504;2022-09-25T15:57:33;4.38;;;1.92;;
44512;SDS011;30219;50.588;9.504;2022-09-25T16:00:04;5.65;;;1.80;;
44512;SDS011;30219;50.588;9.504;2022-09-25T16:03:02;14.18;;;2.45;;
44512;SDS011;30219;50.588;9.504;2022-09-25T16:05:57;6.13;;;1.98;;
44512;SDS011;30219;50.588;9.504;2022-09-25T16:11:16;8.47;;;1.60;;
44512;SDS011;30219;50.588;9.504;2022-09-25T16:13:46;4.88;;;1.67;;
44512;SDS011;30219;50.588;9.504;2022-09-25T16:16:16;4.72;;;2.20;;
44512;SDS011;30219;50.588;9.504;2022-09-25T16:18:55;5.78;;;1.98;;
44512;SDS011;30219;50.588;9.504;2022-09-25T16:21:45;8.43;;;2.10;;
44512;SDS011;30219;50.588;9.504;2022-09-25T16:24:16;5.85;;;1.48;;
44512;SDS011;30219;50.588;9.504;2022-09-25T16:26:47;4.25;;;1.30;;
44512;SDS011;30219;50.588;9.504;2022-09-25T16:29:23;5.03;;;1.73;;
44512;SDS011;30219;50.588;9.504;2022-09-25T16:31:58;5.22;;;1.55;;
44512;SDS011;30219;50.588;9.504;2022-09-25T16:34:33;4.38;;;1.80;;
44512;SDS011;30219;50.588;9.504;2022-09-25T16:37:03;4.75;;;1.42;;
44512;SDS011;30219;50.588;9.504;2022-09-25T16:39:32;6.25;;;1.38;;
44512;SDS011;30219;50.588;9.504;2022-09-25T16:44:46;7.45;;;1.75;;
44512;SDS011;30219;50.588;9.504;2022-09-25T16:47:19;9.57;;;1.52;;
44512;SDS011;30219;50.588;9.504;2022-09-25T16:49:45;4.47;;;1.70;;
44512;SDS011;30219;50.588;9.504;2022-09-25T16:52:14;6.05;;;1.42;;
44512;SDS011;30219;50.588;9.504;2022-09-25T16:54:44;8.43;;;1.83;;
44512;SDS011;30219;50.588;9.504;2022-09-25T16:57:11;9.70;;;3.50;;
44512;SDS011;30219;50.588;9.504;2022-09-25T16:59:41;9.52;;;3.65;;
44512;SDS011;30219;50.588;9.504;2022-09-25T17:02:09;22.58;;;11.50;;
44512;SDS011;30219;50.588;9.504;2022-09-25T17:04:45;76.97;;;37.88;;
44512;SDS011;30219;50.588;9.504;2022-09-25T17:07:10;30.73;;;15.48;;
44512;SDS011;30219;50.588;9.504;2022-09-25T17:09:36;10.10;;;3.95;;
44512;SDS011;30219;50.588;9.504;2022-09-25T17:12:03;6.32;;;2.60;;
44512;SDS011;30219;50.588;9.504;2022-09-25T17:14:34;6.85;;;2.20;;
44512;SDS011;30219;50.588;9.504;2022-09-25T17:17:00;5.68;;;1.90;;
44512;SDS011;30219;50.588;9.504;2022-09-25T17:19:26;7.90;;;2.42;;
44512;SDS011;30219;50.588;9.504;2022-09-25T17:21:52;5.65;;;1.98;;
44512;SDS011;30219;50.588;9.504;2022-09-25T17:24:20;5.82;;;1.98;;